createdAt,value
2024-01-29T06:05:13.095Z,100.00
2024-01-29T06:15:15.603Z,97.26
2024-01-29T06:25:21.778Z,92.49
2024-01-29T06:35:25.227Z,89.63
2024-01-29T06:45:27.819Z,88.32
2024-01-29T06:55:30.154Z,88.22
2024-01-29T07:05:32.537Z,87.88
2024-01-29T07:15:35.328Z,88.38
2024-01-29T07:25:41.375Z,87.74
2024-01-29T07:35:43.738Z,87.40
2024-01-29T07:45:46.135Z,86.93
2024-01-29T07:55:48.454Z,85.79
2024-01-29T08:05:51.016Z,85.95
2024-01-29T08:15:53.478Z,84.59
2024-01-29T08:25:55.947Z,83.56
2024-01-29T08:35:58.535Z,82.79
2024-01-29T08:46:01.488Z,81.76
2024-01-29T08:56:08.082Z,81.86
2024-01-29T09:06:10.495Z,80.41
2024-01-29T09:16:13.670Z,77.44
2024-01-29T09:41:00.263Z,73.29
2024-01-29T09:51:04.150Z,70.47
2024-01-29T10:01:10.649Z,70.26
2024-01-29T10:11:13.133Z,67.16
2024-01-29T10:21:15.495Z,65.83
2024-01-29T10:31:17.894Z,65.34
2024-01-29T10:41:22.399Z,67.54
2024-01-29T10:51:25.916Z,62.13
2024-01-29T11:01:29.926Z,65.51
2024-01-29T11:11:32.725Z,62.28
2024-01-29T11:21:35.270Z,63.57
2024-01-29T11:31:43.631Z,59.90
2024-01-29T11:41:50.395Z,59.92
2024-01-29T11:51:55.143Z,57.96
2024-01-29T12:01:58.651Z,56.05
2024-01-29T12:12:01.002Z,56.16
2024-01-29T12:22:03.579Z,55.41
2024-01-29T12:32:10.309Z,53.90
2024-01-29T12:42:15.512Z,53.41
2024-01-29T12:52:18.036Z,50.27
2024-01-29T13:02:22.086Z,54.06
2024-01-29T13:12:24.409Z,55.28
2024-01-29T13:22:26.912Z,56.21
2024-01-29T13:32:29.476Z,56.59
2024-01-29T13:42:32.233Z,58.59
2024-01-29T13:52:34.704Z,60.84
2024-01-29T14:02:37.174Z,61.96
2024-01-29T14:23:42.304Z,63.51
2024-01-29T14:33:45.699Z,64.14
2024-01-29T14:43:48.997Z,63.65
2024-01-29T14:53:51.437Z,65.05
2024-01-29T15:03:53.910Z,65.00
2024-01-29T15:13:56.667Z,63.77
2024-01-29T15:24:00.862Z,63.43
2024-01-29T15:34:03.461Z,63.79
2024-01-29T15:44:05.908Z,64.08
2024-01-29T15:54:08.384Z,65.21
2024-01-29T16:04:12.780Z,66.01
2024-01-29T16:14:15.167Z,67.07
2024-01-29T16:24:17.578Z,68.17
2024-01-29T16:34:21.605Z,67.49
2024-01-29T16:44:23.963Z,67.98
2024-01-29T16:54:26.580Z,68.50
2024-01-29T17:04:29.147Z,69.49
2024-01-29T17:14:31.570Z,71.10
2024-01-29T17:24:33.962Z,71.21
2024-01-29T17:34:39.240Z,71.57
2024-01-29T17:44:41.966Z,71.31
2024-01-29T17:54:44.347Z,71.84
2024-01-29T18:04:46.926Z,72.26
2024-01-29T18:14:49.864Z,72.06
2024-01-29T18:24:55.405Z,73.54
2024-01-29T18:34:57.878Z,74.13
2024-01-29T18:45:00.349Z,75.28
2024-01-29T18:55:02.955Z,74.88
2024-01-29T19:05:06.041Z,75.16
2024-01-29T19:15:09.151Z,76.96
2024-01-29T19:25:12.216Z,76.86
2024-01-29T19:35:14.842Z,76.71
2024-01-29T19:45:17.979Z,77.60
2024-01-29T19:55:20.406Z,77.29
2024-01-29T20:05:23.327Z,77.79
2024-01-29T20:15:25.694Z,78.28
2024-01-29T20:25:28.083Z,79.12
2024-01-29T20:35:30.447Z,78.65
2024-01-29T20:45:33.585Z,79.41
2024-01-29T20:55:36.103Z,79.64
2024-01-29T21:10:11.214Z,80.06
2024-01-29T21:20:14.254Z,79.19
2024-01-29T21:30:16.589Z,80.77
2024-01-29T21:40:19.179Z,79.91
2024-01-29T21:50:21.569Z,80.04
2024-01-29T22:00:23.926Z,80.61
2024-01-29T22:10:26.388Z,79.18
